Latest Coastal Weather Observations for Hamilton Island

IDQ60701

Issued at 10:01 pm EST Thursday 5 March 2015 (issued every 10 minutes, with the page automatically refreshed every 10 minutes)

About coastal observations | Map of coastal stations | Coastal observations for QLD | Marine services | Other Formats
Station Details ID: 033106 Name: HAMILTON ISLAND AIRPORT Lat: -20.37 Lon: 148.95 Height: 58.66 m
Data from the previous 72 hours. | See also: Recent months at Hamilton Island
Date/Time
EST
Temp

°C
Wind Pressure Rain
since 9am
mm
Weather Cloud Vis
km
Sea
Height
m
Swell
Dir
 
Speed
knots
Gust
knots
hPa Trend Height
m
Period
s
Dir
05/10:00pm 26.8 N 4 5 1008.4 - 0.0 - - 10 - - - -
05/09:30pm 26.6 N 3 4 1008.4 - 0.0 - - 10 - - - -
05/09:00pm 26.4 NE 5 7 1007.8 - 0.0 - - 10 - - - -
05/08:30pm 26.6 NE 6 7 1007.9 - 0.0 - - 10 - - - -
05/08:00pm 26.8 NNE 4 6 1007.6 - 0.0 - - 10 - - - -
05/07:30pm 26.8 ENE 5 8 1007.2 - 0.0 - - 10 - - - -
05/07:00pm 26.9 ENE 6 7 1006.9 - 0.0 - - 10 - - - -
05/06:33pm 27.3 ENE 5 7 1006.8 - 0.0 - - 10 - - - -
05/06:30pm 27.3 ENE 6 7 1006.7 - 0.0 - - 10 - - - -
05/06:14pm 27.5 E 6 7 1006.6 - 0.0 - - 3 - - - -
05/06:00pm 27.7 ENE 7 8 1006.1 - 0.0 - - 10 - - - -
05/05:30pm 28.1 E 8 12 1006.7 - 0.0 - - 10 - - - -
05/05:00pm 27.8 E 8 10 1006.5 - 0.0 - - 10 - - - -
05/04:30pm 27.9 E 8 9 1006.5 - 0.0 - - 10 - - - -
05/04:00pm 28.2 ESE 7 9 1006.8 - 0.0 - - 10 - - - -
05/03:30pm 29.0 E 6 7 1007.2 - 0.0 - - 10 - - - -
05/03:00pm 29.0 ESE 6 7 1007.2 - 0.0 - - 10 - - - -
05/02:30pm 29.0 ESE 7 8 1007.9 - 0.0 - - 10 - - - -
05/02:00pm 28.7 ESE 10 11 1008.5 - 0.0 - - 10 - - - -
05/01:30pm 29.2 ESE 10 11 1009.1 - 0.0 - - 10 - - - -
05/01:00pm 29.3 ESE 8 11 1009.5 - 0.0 - - 10 - - - -
05/12:30pm 29.9 ESE 7 8 1009.9 - 0.0 - - 10 - - - -
05/12:00pm 29.4 ESE 7 9 1010.1 - 0.0 - Mostly clear 10 - - - -
05/11:30am 29.5 ESE 8 10 1011.1 - 0.0 - Partly cloudy 10 - - - -
05/11:00am 29.5 E 8 10 1011.3 - 0.0 - - 10 - - - -
05/10:30am 28.9 E 7 9 1011.8 - 0.0 - - 10 - - - -
05/10:00am 28.6 E 7 9 1012.0 - 0.0 - - 10 - - - -
05/09:30am 29.3 E 8 10 1011.8 - 0.0 - - 10 - - - -
05/09:00am 28.8 ESE 8 10 1011.3 - 2.4 - - 10 - - - -
05/08:30am 28.7 E 10 12 1011.6 - 2.4 - - 10 - - - -
05/08:00am 28.5 ESE 12 15 1011.3 - 2.4 - Partly cloudy 10 - - - -
05/07:30am 28.0 ESE 12 15 1011.1 - 2.4 - - 10 - - - -
05/07:00am 27.6 ESE 13 15 1010.4 - 2.4 - Partly cloudy 10 - - - -
05/06:30am 26.6 ESE 11 13 1010.1 - 2.4 - Partly cloudy - - - - -
05/06:00am 26.6 ESE 11 13 1009.6 - 2.4 - Mostly clear - - - - -
05/05:50am 26.5 SE 11 13 1009.8 - 2.4 - Partly cloudy - - - - -
05/05:30am 26.5 SE 13 15 1009.5 - 2.4 - Cloudy 10 - - - -
05/05:08am 26.5 SE 13 15 1009.3 - 2.4 - Partly cloudy 10 - - - -
05/05:00am 26.5 SE 12 15 1009.2 - 2.4 - Partly cloudy 10 - - - -
05/04:30am 26.6 SE 11 13 1009.2 - 2.4 - Partly cloudy 10 - - - -
05/04:00am 26.7 ESE 12 14 1009.2 - 2.4 - Partly cloudy 10 - - - -
05/03:30am 26.4 SE 11 12 1009.4 - 2.4 - Partly cloudy 10 - - - -
05/03:24am 26.4 SE 10 12 1009.5 - 2.4 - Partly cloudy 10 - - - -
05/03:02am 26.5 SE 11 14 1009.5 - 2.4 - Partly cloudy 10 - - - -
05/03:00am 26.5 SE 12 14 1009.1 - 2.4 - Partly cloudy 10 - - - -
05/02:30am 26.6 ESE 11 12 1009.8 - 2.4 - Partly cloudy 10 - - - -
05/02:00am 26.7 ESE 13 15 1010.1 - 2.4 - Partly cloudy 10 - - - -
05/01:30am 26.7 ESE 13 16 1010.4 - 2.4 - Partly cloudy 10 - - - -
05/01:00am 25.9 ESE 17 22 1010.6 - 2.4 - Partly cloudy 10 - - - -
05/12:33am 26.3 ESE 13 16 1010.9 - 2.4 - Partly cloudy 10 - - - -
05/12:30am 26.2 ESE 14 20 1010.9 - 2.4 - Partly cloudy 10 - - - -
05/12:21am 26.5 ESE 15 20 1010.9 - 2.4 - Partly cloudy 10 - - - -
05/12:00am 26.8 SE 12 14 1010.8 - 2.4 - Mostly cloudy 10 - - - -
 
Date/Time
EST
Temp

°C
Wind Pressure Rain
since 9am
mm
Weather Cloud Vis
km
Sea
Height
m
Swell
Dir
 
Speed
knots
Gust
knots
hPa Trend Height
m
Period
s
Dir
04/11:30pm 26.9 ESE 12 14 1011.6 - 2.4 - - 10 - - - -
04/11:00pm 27.0 ESE 13 15 1011.7 - 2.4 - Partly cloudy 10 - - - -
04/10:30pm 26.9 SE 13 16 1011.8 - 2.4 - Partly cloudy 10 - - - -
04/10:00pm 26.9 SE 14 17 1012.0 - 2.4 - Partly cloudy 10 - - - -
04/09:30pm 27.0 SE 15 18 1012.0 - 2.4 - Partly cloudy 10 - - - -
04/09:00pm 27.1 SE 15 17 1011.5 - 2.4 - Mostly cloudy 10 - - - -
04/08:30pm 27.1 SE 15 17 1011.6 - 2.4 - Partly cloudy 10 - - - -
04/08:00pm 26.9 SE 14 17 1011.3 - 2.4 - Partly cloudy 10 - - - -
04/07:30pm 26.8 SE 13 16 1011.0 - 2.4 - - 10 - - - -
04/07:00pm 26.6 SE 15 17 1010.6 - 2.4 - Partly cloudy 10 - - - -
04/06:30pm 26.8 SE 16 18 1010.6 - 2.4 - Partly cloudy 10 - - - -
04/06:00pm 27.5 SE 15 17 1010.0 - 2.4 - Cloudy 10 - - - -
04/05:30pm 27.7 ESE 14 17 1010.4 - 2.4 - Cloudy 10 - - - -
04/05:00pm 27.7 ESE 15 18 1010.2 - 2.4 - Partly cloudy 10 - - - -
04/04:30pm 28.3 ESE 15 18 1010.3 - 2.4 - Partly cloudy 10 - - - -
04/04:00pm 27.7 SE 18 21 1010.3 - 2.4 - Partly cloudy 10 - - - -
04/03:50pm 27.9 SE 17 22 1010.2 - 2.4 - Partly cloudy 10 - - - -
04/03:30pm 28.0 ESE 17 19 1010.3 - 2.4 - Partly cloudy 10 - - - -
04/03:00pm 29.3 SE 14 17 1010.0 - 2.4 - Mostly clear 10 - - - -
04/02:30pm 29.0 SE 16 18 1010.5 - 2.4 - Partly cloudy 10 - - - -
04/02:00pm 29.0 SE 16 19 1010.8 - 2.4 - - 10 - - - -
04/01:30pm 28.7 ESE 16 19 1011.2 - 2.4 - - 10 - - - -
04/01:00pm 28.8 ESE 16 19 1011.5 - 2.4 - - 10 - - - -
04/12:30pm 28.4 ESE 17 19 1011.6 - 2.4 - Partly cloudy 10 - - - -
04/12:00pm 27.8 ESE 13 18 1011.4 - 2.4 - Cloudy 10 - - - -
04/11:46am 26.4 SE 10 13 1012.0 - 2.4 - Partly cloudy 10 - - - -
04/11:30am 24.8 SSE 8 18 1012.4 - 2.4 - Partly cloudy 5 - - - -
04/11:22am 25.3 SE 20 25 1012.5 - 0.0 - Partly cloudy 6 - - - -
04/11:20am 25.4 SE 21 25 1012.5 - 0.0 - Partly cloudy 8 - - - -
04/11:02am 27.2 SE 18 21 1012.3 - 0.0 - Partly cloudy 10 - - - -
04/11:00am 27.0 SE 19 21 1012.3 - 0.0 - Partly cloudy 10 - - - -
04/10:56am 27.3 SE 19 22 1012.3 - 0.0 - Partly cloudy 10 - - - -
04/10:46am 28.1 SE 17 20 1012.4 - 0.0 - Partly cloudy 10 - - - -
04/10:39am 27.8 SE 18 21 1012.4 - 0.0 - Partly cloudy 10 - - - -
04/10:30am 27.3 SE 19 21 1012.5 - 0.0 - Partly cloudy 10 - - - -
04/10:26am 27.3 SE 20 23 1012.5 - 0.0 - Partly cloudy 10 - - - -
04/10:22am 27.3 SE 20 24 1012.5 - 0.0 - Partly cloudy 10 - - - -
04/10:00am 27.2 SE 22 25 1012.4 - 0.0 - Partly cloudy 10 - - - -
04/09:54am 27.0 SE 21 25 1012.3 - 0.0 - Partly cloudy 10 - - - -
04/09:30am 28.3 SE 19 23 1012.3 - 0.0 - Partly cloudy 10 - - - -
04/09:00am 28.2 SE 20 23 1011.7 - 2.6 - Cloudy 10 - - - -
04/08:30am 27.6 SE 20 24 1011.9 - 2.6 - Partly cloudy 10 - - - -
04/08:00am 27.3 SE 18 22 1011.6 - 2.6 - Partly cloudy 10 - - - -
04/07:30am 27.3 SE 19 21 1011.4 - 2.6 - Partly cloudy 10 - - - -
04/07:00am 27.0 SE 17 19 1011.2 - 2.6 - - 10 - - - -
04/06:30am 26.5 SE 19 23 1010.8 - 2.6 - Partly cloudy 10 - - - -
04/06:00am 26.1 SE 18 22 1010.4 - 2.6 - Partly cloudy 10 - - - -
04/05:30am 26.1 SE 18 22 1010.5 - 2.6 - Partly cloudy 10 - - - -
04/05:00am 26.0 SE 18 23 1010.3 - 2.6 - Partly cloudy 10 - - - -
04/04:30am 26.1 SE 19 22 1010.2 - 2.6 - Partly cloudy 10 - - - -
04/04:00am 26.4 SE 21 25 1010.1 - 2.6 - Partly cloudy 10 - - - -
04/03:30am 26.2 SE 19 23 1010.0 - 2.6 - Partly cloudy 10 - - - -
04/03:00am 26.3 SE 19 23 1009.9 - 2.6 - Partly cloudy 10 - - - -
04/02:30am 26.3 SE 20 24 1010.5 - 2.6 - Partly cloudy 10 - - - -
04/02:00am 26.4 SE 20 24 1010.8 - 2.6 - Partly cloudy 10 - - - -
04/01:30am 26.3 SE 19 23 1011.2 - 2.6 - Partly cloudy 10 - - - -
04/01:00am 26.2 SE 20 24 1011.6 - 2.6 - Partly cloudy 10 - - - -
04/12:30am 26.3 ESE 19 24 1011.9 - 2.6 - Partly cloudy 10 - - - -
04/12:00am 26.3 ESE 19 21 1011.7 - 2.6 - - 10 - - - -
 
Date/Time
EST
Temp

°C
Wind Pressure Rain
since 9am
mm
Weather Cloud Vis
km
Sea
Height
m
Swell
Dir
 
Speed
knots
Gust
knots
hPa Trend Height
m
Period
s
Dir
03/11:30pm 25.8 ESE 18 21 1012.3 - 2.4 - Partly cloudy 10 - - - -
03/11:00pm 26.8 SE 18 21 1012.6 - 0.0 - Partly cloudy 10 - - - -
03/10:30pm 27.0 ESE 23 28 1012.5 - 0.0 - Partly cloudy 10 - - - -
03/10:00pm 26.9 SE 20 23 1012.6 - 0.0 - Partly cloudy 10 - - - -
03/09:30pm 26.9 SE 19 21 1012.7 - 0.0 - - 10 - - - -
03/09:00pm 27.1 SE 23 27 1012.1 - 0.0 - Cloudy 10 - - - -
03/08:30pm 26.9 SE 22 25 1012.2 - 0.0 - Partly cloudy 10 - - - -
03/08:00pm 27.0 SE 20 24 1011.9 - 0.0 - Partly cloudy 10 - - - -
03/07:30pm 27.0 SE 18 22 1011.4 - 0.0 - Partly cloudy 10 - - - -
03/07:00pm 27.0 SE 21 26 1011.1 - 0.0 - Partly cloudy 10 - - - -
03/06:30pm 27.1 SE 19 24 1010.8 - 0.0 - Partly cloudy 10 - - - -
03/06:00pm 27.3 SE 20 24 1010.2 - 0.0 - Mostly clear 10 - - - -
03/05:30pm 27.7 SE 22 25 1010.5 - 0.0 - Partly cloudy 10 - - - -
03/05:00pm 27.9 SE 22 25 1010.2 - 0.0 - - 10 - - - -
03/04:30pm 28.3 SE 21 24 1010.2 - 0.0 - - 10 - - - -
03/04:00pm 28.6 SE 20 23 1010.1 - 0.0 - Partly cloudy 10 - - - -
03/03:30pm 28.6 SE 21 25 1010.1 - 0.0 - Partly cloudy 10 - - - -
03/03:00pm 29.4 SE 22 27 1010.0 - 0.0 - Mostly cloudy 10 - - - -
03/02:30pm 29.4 SE 20 23 1010.4 - 0.0 - Partly cloudy 10 - - - -
03/02:00pm 29.3 SE 21 25 1010.6 - 0.0 - Partly cloudy 10 - - - -
03/01:30pm 29.5 SE 21 26 1011.0 - 0.0 - - 10 - - - -
03/01:00pm 29.4 SE 20 23 1011.3 - 0.0 - Partly cloudy 10 - - - -
03/12:30pm 29.5 SE 19 21 1011.8 - 0.0 - Partly cloudy 10 - - - -
03/12:00pm 28.7 SE 18 20 1011.9 - 0.0 - Mostly clear 10 - - - -
03/11:30am 29.8 SE 18 21 1012.6 - 0.0 - - 10 - - - -
03/11:00am 29.7 SE 17 21 1012.7 - 0.0 - - 10 - - - -
03/10:30am 29.4 SE 18 22 1012.9 - 0.0 - Partly cloudy 10 - - - -
03/10:00am 29.2 ESE 20 24 1012.9 - 0.0 - Partly cloudy 10 - - - -
03/09:30am 29.1 SE 20 24 1012.7 - 0.0 - Partly cloudy 10 - - - -
03/09:00am 28.8 SE 21 24 1012.2 - 0.0 - Mostly clear 10 - - - -
03/08:30am 28.2 ESE 23 27 1012.2 - 0.0 - Partly cloudy 10 - - - -
03/08:00am 28.0 SE 22 25 1012.0 - 0.0 - - 10 - - - -
03/07:30am 27.8 ESE 21 25 1011.7 - 0.0 - - 10 - - - -
03/07:00am 27.4 SE 18 21 1011.6 - 0.0 - Partly cloudy 10 - - - -
03/06:30am 26.8 SE 21 25 1011.3 - 0.0 - Partly cloudy 10 - - - -
03/06:00am 26.6 SE 22 26 1010.6 - 0.0 - Mostly clear 10 - - - -
03/05:30am 26.8 SE 22 28 1010.5 - 0.0 - Partly cloudy 10 - - - -
03/05:00am 26.8 SE 19 23 1010.4 - 0.0 - Partly cloudy 10 - - - -
03/04:30am 26.8 SE 18 21 1010.4 - 0.0 - Partly cloudy 10 - - - -
03/04:00am 27.0 ESE 20 24 1010.1 - 0.0 - Partly cloudy 10 - - - -
03/03:30am 26.9 ESE 17 21 1010.0 - 0.0 - Partly cloudy 10 - - - -
03/03:00am 26.8 SE 19 22 1009.6 - 0.0 - Partly cloudy 10 - - - -
03/02:30am 26.8 ESE 16 19 1010.2 - 0.0 - Partly cloudy 10 - - - -
03/02:00am 26.9 ESE 15 19 1010.4 - 0.0 - Partly cloudy 10 - - - -
03/01:30am 27.0 ESE 17 19 1010.4 - 0.0 - - 10 - - - -
03/01:00am 27.1 ESE 18 22 1010.8 - 0.0 - Partly cloudy 10 - - - -
03/12:30am 27.1 ESE 19 22 1011.0 - 0.0 - Partly cloudy 10 - - - -
03/12:00am 27.2 ESE 19 22 1011.0 - 0.0 - Cloudy 10 - - - -
 
Date/Time
EST
Temp

°C
Wind Pressure Rain
since 9am
mm
Weather Cloud Vis
km
Sea
Height
m
Swell
Dir
 
Speed
knots
Gust
knots
hPa Trend Height
m
Period
s
Dir
02/11:30pm 27.2 ESE 15 17 1011.5 - 0.0 - Partly cloudy 10 - - - -
02/11:00pm 27.3 ESE 18 23 1011.4 - 0.0 - Partly cloudy 10 - - - -
02/10:30pm 27.3 ESE 19 22 1011.4 - 0.0 - Partly cloudy 10 - - - -

Other Formats:

Comma delimited format used in spreadsheet applications
http://www.bom.gov.au/fwo/IDQ60701/IDQ60701.94368.axf

JavaScript Object Notation format (JSON) in row-major order
http://www.bom.gov.au/fwo/IDQ60701/IDQ60701.94368.json